Genua — IIYU — position and weather

sailwx.info

Track history (hours):
 
Tides and Currents Weather Stations Pressure Air Temp Water Temp Dewpoint Dewpoint Depression Visibility Wind Speed Wind Dir Waves Ship Positions

Genua

Last reported at 2015-May-29 01:33 UTC. Time now 2015-May-29 20:23 UTC.
Position N 43°05' E 010°19'.

Length 35 m; draft 6 m.

Type: Tug. MMSI: 247204000.

Date/timePositionNaut miles runAvg speedWind from/ knotsBaromVisibWave heightAir tempDewpointWater temp
2015-May-29 01:33N 43°05' E 010°19'5 4.9
2015-May-29 00:33N 43°10' E 010°17'5 4.9
2015-May-28 23:33N 43°14' E 010°15'5 5.0
2015-May-28 22:33N 43°19' E 010°13'5 4.9
2015-May-28 21:33N 43°23' E 010°10'5 4.9
2015-May-28 20:33N 43°28' E 010°08'5 5.0
2015-May-28 19:33N 43°33' E 010°06'5 5.0
2015-May-28 18:33N 43°38' E 010°04'5 5.0
2015-May-28 17:34N 43°42' E 010°02'5 4.8
2015-May-28 16:33N 43°47' E 010°00'5 4.8
2015-May-28 15:34N 43°52' E 009°58'5 4.8
2015-May-28 14:33N 43°56' E 009°55'5 4.7
2015-May-28 13:34N 44°01' E 009°53'4 4.0
2015-May-28 12:33N 44°04' E 009°51'1 1.4
2015-May-28 11:34N 44°05' E 009°53'0 0.0
2015-May-28 10:33N 44°05' E 009°53'0 0.0
2015-May-28 09:33N 44°05' E 009°53'0 0.0
2015-May-28 08:33N 44°05' E 009°53'0 0.0
2015-May-28 07:33N 44°05' E 009°53'0 0.0
2015-May-28 06:34N 44°05' E 009°53'2 2.0
2015-May-28 05:33N 44°03' E 009°52'3 3.0
2015-May-28 04:33N 44°01' E 009°50'7 7.1
2015-May-28 03:33N 44°04' E 009°41'7 7.0
2015-May-28 02:33N 44°08' E 009°33'7 7.1
2015-May-28 01:33N 44°12' E 009°25'7 7.2
2015-May-28 00:34N 44°16' E 009°16'7 7.3
2015-May-27 23:33N 44°19' E 009°07'7 7.4
2015-May-27 22:34N 44°23' E 008°58'3 2.9
2015-May-27 21:33N 44°25' E 008°55'0 0.0
2015-May-27 20:33N 44°25' E 008°55'0 0.0
2015-May-27 19:33N 44°25' E 008°55'0 0.0
2015-May-27 18:33N 44°25' E 008°55'0 0.0
2015-May-27 17:33N 44°25' E 008°55'0 0.0
2015-May-27 16:33N 44°25' E 008°55'0 0.0
2015-May-27 15:33N 44°25' E 008°55'0 0.0
2015-May-27 14:34N 44°25' E 008°55'0 0.0
2015-May-27 13:33N 44°25' E 008°55'0 0.0
2015-May-27 12:33N 44°25' E 008°55'0 0.0
2015-May-27 11:33N 44°25' E 008°55'0 0.0
2015-May-27 10:33N 44°25' E 008°55'0 0.0
2015-May-27 09:33N 44°25' E 008°55'0 0.0
2015-May-27 08:33N 44°25' E 008°55'0 0.0
2015-May-27 07:33N 44°25' E 008°55'0 0.0
2015-May-27 06:33N 44°25' E 008°55'0 0.0
2015-May-27 05:33N 44°25' E 008°55'0 0.0
2015-May-27 04:34N 44°25' E 008°55'0 0.0
2015-May-27 03:33N 44°25' E 008°55'0 0.0
2015-May-27 02:33N 44°25' E 008°55'0 0.0
2015-May-27 01:33N 44°25' E 008°55'0 0.0
2015-May-27 00:33N 44°25' E 008°55'0 0.0
2015-May-26 23:33N 44°25' E 008°55'0 0.0
2015-May-26 22:33N 44°25' E 008°55'0 0.0
2015-May-26 21:33N 44°25' E 008°55'0 0.0
2015-May-26 20:33N 44°25' E 008°55'0 0.0
2015-May-26 19:33N 44°25' E 008°55'0 0.0
2015-May-26 18:33N 44°25' E 008°55'0 0.0
2015-May-26 17:33N 44°25' E 008°55'0 0.0
2015-May-26 16:33N 44°25' E 008°55'0 0.0
2015-May-26 15:34N 44°25' E 008°55'0 0.0
2015-May-26 14:33N 44°25' E 008°55'0 0.0
2015-May-26 13:34N 44°25' E 008°55'0 0.0
2015-May-26 12:33N 44°25' E 008°55'0 0.0
2015-May-26 11:33N 44°25' E 008°55'0 0.0
2015-May-26 10:33N 44°25' E 008°55'0 0.0
2015-May-26 09:33N 44°25' E 008°55'0 0.0
2015-May-26 08:33N 44°25' E 008°55'0 0.0
2015-May-26 07:33N 44°25' E 008°55'0 0.0
2015-May-26 06:33N 44°25' E 008°55'0 0.0
2015-May-26 05:33N 44°25' E 008°55'0 0.0
2015-May-26 04:33N 44°25' E 008°55'0 0.0
2015-May-26 03:33N 44°25' E 008°55'0 0.0
2015-May-26 02:34N 44°25' E 008°55'0 0.0
2015-May-26 01:33N 44°25' E 008°55'0 0.0
2015-May-26 00:33N 44°25' E 008°55'0 0.0
2015-May-25 23:33N 44°25' E 008°55'0 0.0
2015-May-25 22:33N 44°25' E 008°55'0 0.0
2015-May-25 21:34N 44°25' E 008°55'0 0.0
2015-May-25 20:33N 44°25' E 008°55'0 0.0
2015-May-25 19:34N 44°25' E 008°55'0 0.0
2015-May-25 18:33N 44°25' E 008°55'0 0.0
2015-May-25 17:33N 44°25' E 008°55'0 0.0
2015-May-25 16:33N 44°25' E 008°55'0 0.0
2015-May-25 15:33N 44°25' E 008°55'0 0.0
2015-May-25 14:33N 44°25' E 008°55'0 0.0
2015-May-25 13:33N 44°25' E 008°55'0 0.0
2015-May-25 12:33N 44°25' E 008°55'0 0.0
2015-May-25 11:33N 44°25' E 008°55'0 0.0
2015-May-25 10:33N 44°25' E 008°55'0 0.0
2015-May-25 09:33N 44°25' E 008°55'0 0.4
2015-May-25 08:33N 44°24' E 008°55'0 0.4
2015-May-25 07:33N 44°24' E 008°55'1 0.7
2015-May-25 06:33N 44°25' E 008°55'  
2015-May-22 14:33N 44°25' E 008°55'0 0.0
2015-May-22 13:33N 44°25' E 008°55'0 0.0
2015-May-22 12:33N 44°25' E 008°55'0 0.0
2015-May-22 11:33N 44°25' E 008°55'0 0.0
2015-May-22 10:33N 44°25' E 008°55'0 0.0
2015-May-22 09:32N 44°25' E 008°55'0 0.0
2015-May-22 08:33N 44°25' E 008°55'0 0.0
2015-May-22 07:33N 44°25' E 008°55'0 0.0
2015-May-22 06:33N 44°25' E 008°55'0 0.0
2015-May-22 05:33N 44°25' E 008°55'1 1.0
2015-May-22 04:33N 44°24' E 008°56'1 0.7
2015-May-22 03:33N 44°24' E 008°55'0 0.5
2015-May-22 02:33N 44°25' E 008°55'0 0.0
2015-May-22 01:33N 44°25' E 008°55'0 0.0
2015-May-22 00:33N 44°25' E 008°55'0 0.0
2015-May-21 23:33N 44°25' E 008°55'0 0.0
2015-May-21 22:33N 44°25' E 008°55'0 0.0
2015-May-21 21:33N 44°25' E 008°55'0 0.0
2015-May-21 20:33N 44°25' E 008°55'0 0.0
2015-May-21 19:33N 44°25' E 008°55'0 0.0
2015-May-21 18:33N 44°25' E 008°55'0 0.0
2015-May-21 14:33N 44°25' E 008°55'0 0.0
2015-May-21 13:33N 44°25' E 008°55'0 0.0
2015-May-21 12:33N 44°25' E 008°55'0 0.0
2015-May-21 11:34N 44°25' E 008°55'0 0.0
2015-May-21 10:33N 44°25' E 008°55'0 0.0
2015-May-21 09:33N 44°25' E 008°55'0 0.0
2015-May-21 08:34N 44°25' E 008°55'0 0.0
2015-May-21 07:34N 44°25' E 008°55'0 0.0
2015-May-21 06:31N 44°25' E 008°55'0 0.0
2015-May-20 14:14N 44°25' E 008°55'0 0.0
2015-May-20 13:33N 44°25' E 008°55'0 0.0
2015-May-20 12:33N 44°25' E 008°55'0 0.0
2015-May-20 11:33N 44°25' E 008°55'1 0.8
2015-May-20 10:34N 44°24' E 008°55'0 0.4
2015-May-20 09:33N 44°24' E 008°55'1 0.9
2015-May-20 08:33N 44°25' E 008°55'0 0.0
2015-May-20 07:33N 44°25' E 008°55'0 0.0
2015-May-20 06:33N 44°25' E 008°55'0 0.0
2015-May-19 14:33N 44°25' E 008°55'0 0.0
2015-May-19 13:33N 44°25' E 008°55'0 0.0
2015-May-19 11:10N 44°25' E 008°55'0 0.0
2015-May-19 10:33N 44°25' E 008°55'0 0.0
2015-May-19 09:33N 44°25' E 008°55'0 0.0
2015-May-19 08:33N 44°25' E 008°55'0 0.0
2015-May-19 07:33N 44°25' E 008°55'0 0.0
2015-May-19 06:33N 44°25' E 008°55'0 0.0
2015-May-19 05:33N 44°25' E 008°55'1 0.9
2015-May-19 04:33N 44°24' E 008°55'0 0.1
2015-May-19 03:34N 44°24' E 008°55'1 0.9
2015-May-19 02:33N 44°25' E 008°55'  
Track history (hours):
 
Tides and Currents Weather Stations Pressure Air Temp Water Temp Dewpoint Dewpoint Depression Visibility Wind Speed Wind Dir Waves Ship Positions

Genua

Last reported at 2015-May-29 01:33 UTC. Time now 2015-May-29 20:23 UTC.
Position N 43°05' E 010°19'.

Length 35 m; draft 6 m.

Type: Tug. MMSI: 247204000.

Date/timePositionNaut miles runAvg speedWind from/ knotsBaromVisibWave heightAir tempDewpointWater temp
2015-May-29 01:33N 43°05' E 010°19'5 4.9
2015-May-29 00:33N 43°10' E 010°17'5 4.9
2015-May-28 23:33N 43°14' E 010°15'5 5.0
2015-May-28 22:33N 43°19' E 010°13'5 4.9
2015-May-28 21:33N 43°23' E 010°10'5 4.9
2015-May-28 20:33N 43°28' E 010°08'5 5.0
2015-May-28 19:33N 43°33' E 010°06'5 5.0
2015-May-28 18:33N 43°38' E 010°04'5 5.0
2015-May-28 17:34N 43°42' E 010°02'5 4.8
2015-May-28 16:33N 43°47' E 010°00'5 4.8
2015-May-28 15:34N 43°52' E 009°58'5 4.8
2015-May-28 14:33N 43°56' E 009°55'5 4.7
2015-May-28 13:34N 44°01' E 009°53'4 4.0
2015-May-28 12:33N 44°04' E 009°51'1 1.4
2015-May-28 11:34N 44°05' E 009°53'0 0.0
2015-May-28 10:33N 44°05' E 009°53'0 0.0
2015-May-28 09:33N 44°05' E 009°53'0 0.0
2015-May-28 08:33N 44°05' E 009°53'0 0.0
2015-May-28 07:33N 44°05' E 009°53'0 0.0
2015-May-28 06:34N 44°05' E 009°53'2 2.0
2015-May-28 05:33N 44°03' E 009°52'3 3.0
2015-May-28 04:33N 44°01' E 009°50'7 7.1
2015-May-28 03:33N 44°04' E 009°41'7 7.0
2015-May-28 02:33N 44°08' E 009°33'7 7.1
2015-May-28 01:33N 44°12' E 009°25'7 7.2
2015-May-28 00:34N 44°16' E 009°16'7 7.3
2015-May-27 23:33N 44°19' E 009°07'7 7.4
2015-May-27 22:34N 44°23' E 008°58'3 2.9
2015-May-27 21:33N 44°25' E 008°55'0 0.0
2015-May-27 20:33N 44°25' E 008°55'0 0.0
2015-May-27 19:33N 44°25' E 008°55'0 0.0
2015-May-27 18:33N 44°25' E 008°55'0 0.0
2015-May-27 17:33N 44°25' E 008°55'0 0.0
2015-May-27 16:33N 44°25' E 008°55'0 0.0
2015-May-27 15:33N 44°25' E 008°55'0 0.0
2015-May-27 14:34N 44°25' E 008°55'0 0.0
2015-May-27 13:33N 44°25' E 008°55'0 0.0
2015-May-27 12:33N 44°25' E 008°55'0 0.0
2015-May-27 11:33N 44°25' E 008°55'0 0.0
2015-May-27 10:33N 44°25' E 008°55'0 0.0
2015-May-27 09:33N 44°25' E 008°55'0 0.0
2015-May-27 08:33N 44°25' E 008°55'0 0.0
2015-May-27 07:33N 44°25' E 008°55'0 0.0
2015-May-27 06:33N 44°25' E 008°55'0 0.0
2015-May-27 05:33N 44°25' E 008°55'0 0.0
2015-May-27 04:34N 44°25' E 008°55'0 0.0
2015-May-27 03:33N 44°25' E 008°55'0 0.0
2015-May-27 02:33N 44°25' E 008°55'0 0.0
2015-May-27 01:33N 44°25' E 008°55'0 0.0
2015-May-27 00:33N 44°25' E 008°55'0 0.0
2015-May-26 23:33N 44°25' E 008°55'0 0.0
2015-May-26 22:33N 44°25' E 008°55'0 0.0
2015-May-26 21:33N 44°25' E 008°55'0 0.0
2015-May-26 20:33N 44°25' E 008°55'0 0.0
2015-May-26 19:33N 44°25' E 008°55'0 0.0
2015-May-26 18:33N 44°25' E 008°55'0 0.0
2015-May-26 17:33N 44°25' E 008°55'0 0.0
2015-May-26 16:33N 44°25' E 008°55'0 0.0
2015-May-26 15:34N 44°25' E 008°55'0 0.0
2015-May-26 14:33N 44°25' E 008°55'0 0.0
2015-May-26 13:34N 44°25' E 008°55'0 0.0
2015-May-26 12:33N 44°25' E 008°55'0 0.0
2015-May-26 11:33N 44°25' E 008°55'0 0.0
2015-May-26 10:33N 44°25' E 008°55'0 0.0
2015-May-26 09:33N 44°25' E 008°55'0 0.0
2015-May-26 08:33N 44°25' E 008°55'0 0.0
2015-May-26 07:33N 44°25' E 008°55'0 0.0
2015-May-26 06:33N 44°25' E 008°55'0 0.0
2015-May-26 05:33N 44°25' E 008°55'0 0.0
2015-May-26 04:33N 44°25' E 008°55'0 0.0
2015-May-26 03:33N 44°25' E 008°55'0 0.0
2015-May-26 02:34N 44°25' E 008°55'0 0.0
2015-May-26 01:33N 44°25' E 008°55'0 0.0
2015-May-26 00:33N 44°25' E 008°55'0 0.0
2015-May-25 23:33N 44°25' E 008°55'0 0.0
2015-May-25 22:33N 44°25' E 008°55'0 0.0
2015-May-25 21:34N 44°25' E 008°55'0 0.0
2015-May-25 20:33N 44°25' E 008°55'0 0.0
2015-May-25 19:34N 44°25' E 008°55'0 0.0
2015-May-25 18:33N 44°25' E 008°55'0 0.0
2015-May-25 17:33N 44°25' E 008°55'0 0.0
2015-May-25 16:33N 44°25' E 008°55'0 0.0
2015-May-25 15:33N 44°25' E 008°55'0 0.0
2015-May-25 14:33N 44°25' E 008°55'0 0.0
2015-May-25 13:33N 44°25' E 008°55'0 0.0
2015-May-25 12:33N 44°25' E 008°55'0 0.0
2015-May-25 11:33N 44°25' E 008°55'0 0.0
2015-May-25 10:33N 44°25' E 008°55'0 0.0
2015-May-25 09:33N 44°25' E 008°55'0 0.4
2015-May-25 08:33N 44°24' E 008°55'0 0.4
2015-May-25 07:33N 44°24' E 008°55'1 0.7
2015-May-25 06:33N 44°25' E 008°55'  
2015-May-22 14:33N 44°25' E 008°55'0 0.0
2015-May-22 13:33N 44°25' E 008°55'0 0.0
2015-May-22 12:33N 44°25' E 008°55'0 0.0
2015-May-22 11:33N 44°25' E 008°55'0 0.0
2015-May-22 10:33N 44°25' E 008°55'0 0.0
2015-May-22 09:32N 44°25' E 008°55'0 0.0
2015-May-22 08:33N 44°25' E 008°55'0 0.0
2015-May-22 07:33N 44°25' E 008°55'0 0.0
2015-May-22 06:33N 44°25' E 008°55'0 0.0
2015-May-22 05:33N 44°25' E 008°55'1 1.0
2015-May-22 04:33N 44°24' E 008°56'1 0.7
2015-May-22 03:33N 44°24' E 008°55'0 0.5
2015-May-22 02:33N 44°25' E 008°55'0 0.0
2015-May-22 01:33N 44°25' E 008°55'0 0.0
2015-May-22 00:33N 44°25' E 008°55'0 0.0
2015-May-21 23:33N 44°25' E 008°55'0 0.0
2015-May-21 22:33N 44°25' E 008°55'0 0.0
2015-May-21 21:33N 44°25' E 008°55'0 0.0
2015-May-21 20:33N 44°25' E 008°55'0 0.0
2015-May-21 19:33N 44°25' E 008°55'0 0.0
2015-May-21 18:33N 44°25' E 008°55'0 0.0
2015-May-21 14:33N 44°25' E 008°55'0 0.0
2015-May-21 13:33N 44°25' E 008°55'0 0.0
2015-May-21 12:33N 44°25' E 008°55'0 0.0
2015-May-21 11:34N 44°25' E 008°55'0 0.0
2015-May-21 10:33N 44°25' E 008°55'0 0.0
2015-May-21 09:33N 44°25' E 008°55'0 0.0
2015-May-21 08:34N 44°25' E 008°55'0 0.0
2015-May-21 07:34N 44°25' E 008°55'0 0.0
2015-May-21 06:31N 44°25' E 008°55'0 0.0
2015-May-20 14:14N 44°25' E 008°55'0 0.0
2015-May-20 13:33N 44°25' E 008°55'0 0.0
2015-May-20 12:33N 44°25' E 008°55'0 0.0
2015-May-20 11:33N 44°25' E 008°55'1 0.8
2015-May-20 10:34N 44°24' E 008°55'0 0.4
2015-May-20 09:33N 44°24' E 008°55'1 0.9
2015-May-20 08:33N 44°25' E 008°55'0 0.0
2015-May-20 07:33N 44°25' E 008°55'0 0.0
2015-May-20 06:33N 44°25' E 008°55'0 0.0
2015-May-19 14:33N 44°25' E 008°55'0 0.0
2015-May-19 13:33N 44°25' E 008°55'0 0.0
2015-May-19 11:10N 44°25' E 008°55'0 0.0
2015-May-19 10:33N 44°25' E 008°55'0 0.0
2015-May-19 09:33N 44°25' E 008°55'0 0.0
2015-May-19 08:33N 44°25' E 008°55'0 0.0
2015-May-19 07:33N 44°25' E 008°55'0 0.0
2015-May-19 06:33N 44°25' E 008°55'0 0.0
2015-May-19 05:33N 44°25' E 008°55'1 0.9
2015-May-19 04:33N 44°24' E 008°55'0 0.1
2015-May-19 03:34N 44°24' E 008°55'1 0.9
2015-May-19 02:33N 44°25' E 008°55'  

Dump ship's entire track history